North Platte Regional Airport Lee Bird Field
KLBF : now visible

Airfield :











YOU CAN JOIN US ON...

 
LOGIN :

Register | Disclaimer

   EN    FR    IT 

 









Legend :    VFR   Marginal VFR   IFR   Intensive IFR   Very Intensive IFR
Visi :
Ceiling :
>= 8 km
>= 3000ft
5 to 8 km
1000 to 3000 ft
1500m to 5 km
500 to 1000 ft
800 to 1500m
200 to 500 ft
< 800m
< 200 ft
Symbols :   Thunderstorms  Fog  Heavy snow  Heavy precipitations  Wind > 20 kt






- Airport Elevation : 2777 ft
- IATA code : LBF


KLBF - North Platte Regional Lee Bird Field

CURRENT METAR :
  • 161023Z AUTO 33003KT 2SM -SN BR OVC011 01/00 A3009 RMK AO2 P0002 T00110000

EXPIRED METARs :
  • 160953Z AUTO 33004KT 1 3/4SM -SN BR OVC010 01/M01 A3009 RMK AO2 SLP202 P0003 T00111006
  • 160935Z AUTO 28004KT 1 1/2SM -SN BR OVC009 01/M01 A3010 RMK AO2 P0002 T00111006
  • 160917Z AUTO 30003KT 1 1/2SM -SN BR OVC011 01/M01 A3010 RMK AO2 P0001 T00111006
  • 160904Z AUTO 30003KT 2 1/2SM -SN BR OVC011 01/M01 A3010 RMK AO2 P0001 T00111006
  • 160853Z AUTO 00000KT 3SM -SN BR BKN011 OVC017 01/M01 A3011 RMK AO2 SLP207 P0002 60008 T00111006 58010
  • 160836Z AUTO 00000KT 3SM -SN BR SCT014 OVC019 01/00 A3011 RMK AO2 P0002 T00110000
  • 160828Z AUTO 00000KT 2 1/2SM -SN BR OVC019 01/00 A3011 RMK AO2 P0001 T00110000
  • 160820Z AUTO 00000KT 3SM -SN BR OVC019 01/M01 A3011 RMK AO2 P0001 T00111006
  • 160806Z AUTO 00000KT 2 1/2SM -SN BR OVC018 01/M01 A3012 RMK AO2 P0001 T00111006
  • 160753Z AUTO 00000KT 3SM -SN BR OVC020 01/00 A3012 RMK AO2 SLP211 P0002 T00110000

TAF KLBF
Valid from the 16 at 06:00 until the 17 at 06:00 UTC


160523Z 1606/1706 04007KT 6SM -SN BR OVC013
TEMPO 1607/1609 2SM -SN BR OVC007
FM160900 01005KT 3SM -SN BR OVC006
FM161500 34009KT 5SM -RASN BR OVC007
FM162000 35011KT 5SM -RASN BR OVC010
FM170400 34008KT 5SM BR BKN009
KZDV FIR / North America



MET'MAP, your aeronautical weather chart ! - Copyright ORBIFLY December 2007 - Disclaimer

ORBIFLY MET'MAP TEAM :

Programming & Development : Alexandra Zaïnal
Concept & original design : Baudouin d'Aumeries
Assistance for programming : Marc-Olivier Méhu
Technical & hardware support : Manuel Goepfert

Contact : metmap@orbifly.com




SOURCES & CREDITS :

   NOAA       Earth
Advisory